sensor_id;sensor_type;location;lat;lon;timestamp;pressure;altitude;pressure_sealevel;temperature;humidity
82245;BME280;71849;50.096;14.458;2023-08-12T00:00:45;99988.56;;;19.39;64.33
82245;BME280;71849;50.096;14.458;2023-08-12T00:03:11;99987.16;;;19.36;64.88
82245;BME280;71849;50.096;14.458;2023-08-12T00:05:37;99989.94;;;19.31;65.07
82245;BME280;71849;50.096;14.458;2023-08-12T00:08:03;99987.47;;;19.30;64.91
82245;BME280;71849;50.096;14.458;2023-08-12T00:10:29;99973.63;;;19.25;65.46
82245;BME280;71849;50.096;14.458;2023-08-12T00:12:55;99980.53;;;19.22;64.66
82245;BME280;71849;50.096;14.458;2023-08-12T00:15:20;99977.50;;;19.14;65.31
82245;BME280;71849;50.096;14.458;2023-08-12T00:17:46;99972.78;;;19.09;65.94
82245;BME280;71849;50.096;14.458;2023-08-12T00:20:11;99978.59;;;19.07;65.81
82245;BME280;71849;50.096;14.458;2023-08-12T00:22:39;99986.03;;;19.02;66.00
82245;BME280;71849;50.096;14.458;2023-08-12T00:25:05;99984.66;;;19.09;66.05
82245;BME280;71849;50.096;14.458;2023-08-12T00:27:31;99987.44;;;18.99;65.88
82245;BME280;71849;50.096;14.458;2023-08-12T00:29:56;99981.03;;;18.94;66.37
82245;BME280;71849;50.096;14.458;2023-08-12T00:32:22;99989.59;;;18.92;66.15
82245;BME280;71849;50.096;14.458;2023-08-12T00:34:47;99981.31;;;18.87;66.54
82245;BME280;71849;50.096;14.458;2023-08-12T00:37:13;99974.97;;;18.87;66.92
82245;BME280;71849;50.096;14.458;2023-08-12T00:39:38;99976.06;;;18.86;67.19
82245;BME280;71849;50.096;14.458;2023-08-12T00:42:04;99977.75;;;18.87;67.04
82245;BME280;71849;50.096;14.458;2023-08-12T00:44:29;99980.75;;;18.85;67.06
82245;BME280;71849;50.096;14.458;2023-08-12T00:46:54;99971.94;;;18.78;67.30
82245;BME280;71849;50.096;14.458;2023-08-12T00:49:21;99969.19;;;18.78;67.28
82245;BME280;71849;50.096;14.458;2023-08-12T00:51:49;99968.88;;;18.75;67.30
82245;BME280;71849;50.096;14.458;2023-08-12T00:54:16;99970.81;;;18.79;67.05
82245;BME280;71849;50.096;14.458;2023-08-12T00:56:42;99972.72;;;18.74;67.31
82245;BME280;71849;50.096;14.458;2023-08-12T00:59:09;99974.94;;;18.72;67.74
82245;BME280;71849;50.096;14.458;2023-08-12T01:01:39;99972.47;;;18.75;66.90
82245;BME280;71849;50.096;14.458;2023-08-12T01:04:05;99968.31;;;18.73;67.00
82245;BME280;71849;50.096;14.458;2023-08-12T01:06:31;99962.78;;;18.68;67.31
82245;BME280;71849;50.096;14.458;2023-08-12T01:08:57;99954.50;;;18.68;67.49
82245;BME280;71849;50.096;14.458;2023-08-12T01:17:37;99956.13;;;18.59;68.41
82245;BME280;71849;50.096;14.458;2023-08-12T01:20:06;99956.97;;;18.54;68.13
82245;BME280;71849;50.096;14.458;2023-08-12T01:22:38;99952.53;;;18.53;68.12
82245;BME280;71849;50.096;14.458;2023-08-12T01:25:07;99958.03;;;18.48;68.72
82245;BME280;71849;50.096;14.458;2023-08-12T01:27:35;99962.13;;;18.45;68.59
82245;BME280;71849;50.096;14.458;2023-08-12T01:30:02;99965.16;;;18.44;68.78
82245;BME280;71849;50.096;14.458;2023-08-12T01:32:41;99967.63;;;18.45;69.13
82245;BME280;71849;50.096;14.458;2023-08-12T01:35:21;99963.47;;;18.38;69.30
82245;BME280;71849;50.096;14.458;2023-08-12T01:37:51;99950.78;;;18.32;69.39
82245;BME280;71849;50.096;14.458;2023-08-12T01:40:19;99960.19;;;18.36;69.12
82245;BME280;71849;50.096;14.458;2023-08-12T01:42:45;99964.53;;;18.27;69.33
82245;BME280;71849;50.096;14.458;2023-08-12T01:45:11;99956.28;;;18.27;69.45
82245;BME280;71849;50.096;14.458;2023-08-12T01:47:37;99965.66;;;18.31;69.86
82245;BME280;71849;50.096;14.458;2023-08-12T01:50:03;99964.00;;;18.30;69.85
82245;BME280;71849;50.096;14.458;2023-08-12T01:52:29;99968.47;;;18.41;69.09
82245;BME280;71849;50.096;14.458;2023-08-12T01:54:54;99969.59;;;18.45;69.42
82245;BME280;71849;50.096;14.458;2023-08-12T01:57:20;99971.22;;;18.46;69.14
82245;BME280;71849;50.096;14.458;2023-08-12T01:59:45;99963.72;;;18.36;69.63
82245;BME280;71849;50.096;14.458;2023-08-12T02:02:12;99975.28;;;18.23;70.13
82245;BME280;71849;50.096;14.458;2023-08-12T02:04:39;99964.75;;;18.15;70.30
82245;BME280;71849;50.096;14.458;2023-08-12T02:07:05;99968.31;;;18.11;70.42
82245;BME280;71849;50.096;14.458;2023-08-12T02:09:30;99965.25;;;18.07;70.83
82245;BME280;71849;50.096;14.458;2023-08-12T02:11:56;99961.59;;;17.96;70.95
82245;BME280;71849;50.096;14.458;2023-08-12T02:14:22;99965.16;;;17.87;71.23
82245;BME280;71849;50.096;14.458;2023-08-12T02:16:47;99957.16;;;17.90;70.93
82245;BME280;71849;50.096;14.458;2023-08-12T02:19:13;99958.59;;;17.93;71.51
82245;BME280;71849;50.096;14.458;2023-08-12T02:21:38;99956.06;;;17.86;71.30
82245;BME280;71849;50.096;14.458;2023-08-12T02:24:04;99944.13;;;17.76;71.64
82245;BME280;71849;50.096;14.458;2023-08-12T02:26:30;99957.44;;;17.89;71.08
82245;BME280;71849;50.096;14.458;2023-08-12T02:28:55;99953.63;;;17.95;70.60
82245;BME280;71849;50.096;14.458;2023-08-12T02:31:22;99960.53;;;17.97;70.60
82245;BME280;71849;50.096;14.458;2023-08-12T02:33:47;99949.81;;;18.01;69.84
82245;BME280;71849;50.096;14.458;2023-08-12T02:36:14;99948.97;;;18.06;69.87
82245;BME280;71849;50.096;14.458;2023-08-12T02:38:40;99946.53;;;18.09;69.61
82245;BME280;71849;50.096;14.458;2023-08-12T02:41:05;99944.28;;;18.01;70.34
82245;BME280;71849;50.096;14.458;2023-08-12T02:43:31;99941.00;;;18.04;69.86
82245;BME280;71849;50.096;14.458;2023-08-12T02:45:56;99949.53;;;18.02;69.75
82245;BME280;71849;50.096;14.458;2023-08-12T02:48:22;99943.53;;;18.16;68.66
82245;BME280;71849;50.096;14.458;2023-08-12T02:50:47;99945.47;;;18.15;68.54
82245;BME280;71849;50.096;14.458;2023-08-12T02:53:12;99945.19;;;18.17;68.77
82245;BME280;71849;50.096;14.458;2023-08-12T02:55:38;99945.19;;;18.17;68.68
82245;BME280;71849;50.096;14.458;2023-08-12T02:58:03;99940.78;;;18.11;69.36
82245;BME280;71849;50.096;14.458;2023-08-12T03:00:29;99946.19;;;17.95;69.88
82245;BME280;71849;50.096;14.458;2023-08-12T03:02:55;99948.91;;;17.90;70.32
82245;BME280;71849;50.096;14.458;2023-08-12T03:05:21;99944.84;;;18.03;69.77
82245;BME280;71849;50.096;14.458;2023-08-12T03:07:46;99944.00;;;17.97;70.30
82245;BME280;71849;50.096;14.458;2023-08-12T03:10:12;99947.59;;;17.98;70.45
82245;BME280;71849;50.096;14.458;2023-08-12T03:12:38;99946.69;;;17.87;70.76
82245;BME280;71849;50.096;14.458;2023-08-12T03:15:05;99945.50;;;17.73;71.19
82245;BME280;71849;50.096;14.458;2023-08-12T03:17:30;99951.00;;;17.68;71.46
82245;BME280;71849;50.096;14.458;2023-08-12T03:19:57;99951.19;;;17.57;71.99
82245;BME280;71849;50.096;14.458;2023-08-12T03:22:25;99955.75;;;17.51;71.91
82245;BME280;71849;50.096;14.458;2023-08-12T03:24:50;99942.59;;;17.53;71.47
82245;BME280;71849;50.096;14.458;2023-08-12T03:27:16;99951.22;;;17.62;71.11
82245;BME280;71849;50.096;14.458;2023-08-12T03:29:41;99956.22;;;17.70;70.48
82245;BME280;71849;50.096;14.458;2023-08-12T03:32:06;99947.19;;;17.79;70.57
82245;BME280;71849;50.096;14.458;2023-08-12T03:34:32;99948.22;;;17.68;71.41
82245;BME280;71849;50.096;14.458;2023-08-12T03:36:57;99955.34;;;17.64;71.52
82245;BME280;71849;50.096;14.458;2023-08-12T03:39:23;99947.38;;;17.63;71.76
82245;BME280;71849;50.096;14.458;2023-08-12T03:41:48;99958.00;;;17.54;71.93
82245;BME280;71849;50.096;14.458;2023-08-12T03:44:15;99947.50;;;17.51;72.26
82245;BME280;71849;50.096;14.458;2023-08-12T03:46:41;99948.56;;;17.45;72.40
82245;BME280;71849;50.096;14.458;2023-08-12T03:49:06;99956.25;;;17.43;72.51
82245;BME280;71849;50.096;14.458;2023-08-12T03:51:31;99949.91;;;17.37;72.91
82245;BME280;71849;50.096;14.458;2023-08-12T03:53:58;99948.50;;;17.35;73.02
82245;BME280;71849;50.096;14.458;2023-08-12T03:56:23;99949.25;;;17.25;73.59
82245;BME280;71849;50.096;14.458;2023-08-12T03:58:48;99947.84;;;17.23;73.50
82245;BME280;71849;50.096;14.458;2023-08-12T04:01:14;99940.38;;;17.18;73.56
82245;BME280;71849;50.096;14.458;2023-08-12T04:03:39;99941.22;;;17.19;73.55
82245;BME280;71849;50.096;14.458;2023-08-12T04:06:04;99949.22;;;17.20;73.60
82245;BME280;71849;50.096;14.458;2023-08-12T04:08:30;99951.88;;;17.10;74.12
82245;BME280;71849;50.096;14.458;2023-08-12T04:10:57;99952.75;;;17.16;73.61
82245;BME280;71849;50.096;14.458;2023-08-12T04:13:23;99946.50;;;17.25;73.06
82245;BME280;71849;50.096;14.458;2023-08-12T04:15:50;99943.53;;;17.32;72.82
82245;BME280;71849;50.096;14.458;2023-08-12T04:18:16;99951.19;;;17.30;72.88
82245;BME280;71849;50.096;14.458;2023-08-12T04:20:41;99952.63;;;17.32;73.09
82245;BME280;71849;50.096;14.458;2023-08-12T04:23:07;99958.34;;;17.26;73.38
82245;BME280;71849;50.096;14.458;2023-08-12T04:25:32;99949.50;;;17.24;73.36
82245;BME280;71849;50.096;14.458;2023-08-12T04:27:58;99946.81;;;17.29;72.92
82245;BME280;71849;50.096;14.458;2023-08-12T04:30:23;99941.38;;;17.39;72.11
82245;BME280;71849;50.096;14.458;2023-08-12T04:32:49;99948.09;;;17.53;70.66
82245;BME280;71849;50.096;14.458;2023-08-12T04:35:14;99954.28;;;17.70;70.16
82245;BME280;71849;50.096;14.458;2023-08-12T04:37:40;99948.25;;;17.73;71.16
82245;BME280;71849;50.096;14.458;2023-08-12T04:40:06;99943.31;;;17.75;71.10
82245;BME280;71849;50.096;14.458;2023-08-12T04:42:34;99946.88;;;17.76;70.48
82245;BME280;71849;50.096;14.458;2023-08-12T04:45:00;99950.72;;;17.70;71.30
82245;BME280;71849;50.096;14.458;2023-08-12T04:47:25;99942.94;;;17.57;71.65
82245;BME280;71849;50.096;14.458;2023-08-12T04:49:51;99941.19;;;17.51;71.71
82245;BME280;71849;50.096;14.458;2023-08-12T04:52:17;99942.84;;;17.52;72.00
82245;BME280;71849;50.096;14.458;2023-08-12T04:54:42;99938.66;;;17.44;72.13
82245;BME280;71849;50.096;14.458;2023-08-12T04:57:08;99940.44;;;17.55;71.73
82245;BME280;71849;50.096;14.458;2023-08-12T04:59:36;99941.34;;;17.66;71.45
82245;BME280;71849;50.096;14.458;2023-08-12T05:02:02;99943.59;;;17.74;70.64
82245;BME280;71849;50.096;14.458;2023-08-12T05:04:27;99941.72;;;17.84;70.40
82245;BME280;71849;50.096;14.458;2023-08-12T05:06:53;99933.25;;;17.96;70.35
82245;BME280;71849;50.096;14.458;2023-08-12T05:09:18;99936.03;;;18.06;69.86
82245;BME280;71849;50.096;14.458;2023-08-12T05:11:44;99934.41;;;18.10;69.95
82245;BME280;71849;50.096;14.458;2023-08-12T05:14:09;99941.06;;;18.14;69.89
82245;BME280;71849;50.096;14.458;2023-08-12T05:16:37;99937.78;;;18.27;69.25
82245;BME280;71849;50.096;14.458;2023-08-12T05:19:03;99948.31;;;18.35;68.60
82245;BME280;71849;50.096;14.458;2023-08-12T05:21:28;99945.38;;;18.52;67.98
82245;BME280;71849;50.096;14.458;2023-08-12T05:23:54;99938.22;;;18.56;67.50
82245;BME280;71849;50.096;14.458;2023-08-12T05:26:19;99944.03;;;18.70;66.84
82245;BME280;71849;50.096;14.458;2023-08-12T05:28:46;99932.50;;;18.78;66.70
82245;BME280;71849;50.096;14.458;2023-08-12T05:31:11;99939.66;;;18.89;66.04
82245;BME280;71849;50.096;14.458;2023-08-12T05:33:37;99933.88;;;18.95;65.71
82245;BME280;71849;50.096;14.458;2023-08-12T05:36:02;99932.81;;;19.12;65.99
82245;BME280;71849;50.096;14.458;2023-08-12T05:38:28;99928.38;;;19.31;65.23
82245;BME280;71849;50.096;14.458;2023-08-12T05:40:53;99932.78;;;19.37;64.46
82245;BME280;71849;50.096;14.458;2023-08-12T05:43:19;99919.03;;;19.47;64.54
82245;BME280;71849;50.096;14.458;2023-08-12T05:45:44;99921.22;;;19.50;63.82
82245;BME280;71849;50.096;14.458;2023-08-12T05:48:12;99925.63;;;19.56;63.45
82245;BME280;71849;50.096;14.458;2023-08-12T05:50:42;99919.28;;;19.55;62.95
82245;BME280;71849;50.096;14.458;2023-08-12T05:53:08;99917.59;;;19.75;62.39
82245;BME280;71849;50.096;14.458;2023-08-12T05:55:34;99918.72;;;19.79;62.11
82245;BME280;71849;50.096;14.458;2023-08-12T05:58:03;99928.06;;;19.93;61.48
82245;BME280;71849;50.096;14.458;2023-08-12T06:00:32;99926.06;;;20.03;61.21
82245;BME280;71849;50.096;14.458;2023-08-12T06:02:58;99922.72;;;20.16;60.29
82245;BME280;71849;50.096;14.458;2023-08-12T06:05:23;99918.00;;;20.32;60.16
82245;BME280;71849;50.096;14.458;2023-08-12T06:07:49;99915.16;;;20.47;59.68
82245;BME280;71849;50.096;14.458;2023-08-12T06:10:14;99914.00;;;20.53;59.48
82245;BME280;71849;50.096;14.458;2023-08-12T06:12:42;99915.34;;;20.61;59.30
82245;BME280;71849;50.096;14.458;2023-08-12T06:15:08;99908.69;;;20.67;59.52
82245;BME280;71849;50.096;14.458;2023-08-12T06:17:33;99914.75;;;20.69;59.21
82245;BME280;71849;50.096;14.458;2023-08-12T06:20:00;99914.22;;;20.67;58.86
82245;BME280;71849;50.096;14.458;2023-08-12T06:22:25;99903.38;;;20.70;58.46
82245;BME280;71849;50.096;14.458;2023-08-12T06:24:51;99903.69;;;20.69;58.51
82245;BME280;71849;50.096;14.458;2023-08-12T06:27:17;99906.47;;;20.64;58.56
82245;BME280;71849;50.096;14.458;2023-08-12T06:29:44;99910.88;;;20.70;58.92
82245;BME280;71849;50.096;14.458;2023-08-12T06:32:10;99908.66;;;20.72;58.27
82245;BME280;71849;50.096;14.458;2023-08-12T06:34:38;99912.47;;;20.81;58.05
82245;BME280;71849;50.096;14.458;2023-08-12T06:37:03;99906.56;;;20.93;57.63
82245;BME280;71849;50.096;14.458;2023-08-12T06:39:29;99909.59;;;20.96;57.95
82245;BME280;71849;50.096;14.458;2023-08-12T06:41:54;99910.38;;;21.02;57.79
82245;BME280;71849;50.096;14.458;2023-08-12T06:44:21;99911.44;;;21.11;57.28
82245;BME280;71849;50.096;14.458;2023-08-12T06:46:46;99902.50;;;21.19;57.17
82245;BME280;71849;50.096;14.458;2023-08-12T06:49:12;99909.44;;;21.21;57.30
82245;BME280;71849;50.096;14.458;2023-08-12T06:51:37;99905.53;;;21.22;56.83
82245;BME280;71849;50.096;14.458;2023-08-12T06:54:06;99903.50;;;21.33;56.89
82245;BME280;71849;50.096;14.458;2023-08-12T06:56:34;99906.22;;;21.38;57.06
82245;BME280;71849;50.096;14.458;2023-08-12T06:58:59;99907.88;;;21.39;57.02
82245;BME280;71849;50.096;14.458;2023-08-12T07:01:24;99899.44;;;21.54;56.85
82245;BME280;71849;50.096;14.458;2023-08-12T07:03:50;99895.75;;;21.64;56.40
82245;BME280;71849;50.096;14.458;2023-08-12T07:06:15;99897.81;;;21.77;55.88
82245;BME280;71849;50.096;14.458;2023-08-12T07:08:41;99894.94;;;21.87;55.70
82245;BME280;71849;50.096;14.458;2023-08-12T07:11:13;99901.00;;;21.94;55.68
82245;BME280;71849;50.096;14.458;2023-08-12T07:13:39;99894.13;;;22.10;55.50
82245;BME280;71849;50.096;14.458;2023-08-12T07:16:04;99892.00;;;22.02;55.49
82245;BME280;71849;50.096;14.458;2023-08-12T07:18:30;99885.22;;;22.13;55.46
82245;BME280;71849;50.096;14.458;2023-08-12T07:20:56;99884.03;;;22.19;55.07
82245;BME280;71849;50.096;14.458;2023-08-12T07:23:23;99882.47;;;22.32;55.10
82245;BME280;71849;50.096;14.458;2023-08-12T07:25:49;99883.22;;;22.38;54.88
82245;BME280;71849;50.096;14.458;2023-08-12T07:28:14;99883.72;;;22.63;53.96
82245;BME280;71849;50.096;14.458;2023-08-12T07:30:40;99878.94;;;22.69;53.72
82245;BME280;71849;50.096;14.458;2023-08-12T07:33:05;99880.00;;;22.73;53.66
82245;BME280;71849;50.096;14.458;2023-08-12T07:35:30;99880.44;;;22.80;53.30
82245;BME280;71849;50.096;14.458;2023-08-12T07:37:56;99871.13;;;22.90;53.45
82245;BME280;71849;50.096;14.458;2023-08-12T07:40:21;99878.03;;;22.92;53.21
82245;BME280;71849;50.096;14.458;2023-08-12T07:42:46;99871.34;;;22.93;53.64
82245;BME280;71849;50.096;14.458;2023-08-12T07:45:12;99874.38;;;23.10;52.98
82245;BME280;71849;50.096;14.458;2023-08-12T07:47:38;99875.19;;;23.29;52.03
82245;BME280;71849;50.096;14.458;2023-08-12T07:50:04;99870.81;;;23.42;51.92
82245;BME280;71849;50.096;14.458;2023-08-12T07:52:30;99866.31;;;23.46;51.74
82245;BME280;71849;50.096;14.458;2023-08-12T07:54:58;99865.94;;;23.53;52.28
82245;BME280;71849;50.096;14.458;2023-08-12T07:57:24;99858.53;;;23.62;52.00
82245;BME280;71849;50.096;14.458;2023-08-12T07:59:50;99858.81;;;23.60;51.68
82245;BME280;71849;50.096;14.458;2023-08-12T08:02:15;99858.03;;;23.73;51.18
82245;BME280;71849;50.096;14.458;2023-08-12T08:04:42;99855.94;;;23.92;51.22
82245;BME280;71849;50.096;14.458;2023-08-12T08:07:20;99868.09;;;23.97;51.21
82245;BME280;71849;50.096;14.458;2023-08-12T08:09:45;99858.03;;;24.01;50.97
82245;BME280;71849;50.096;14.458;2023-08-12T08:12:13;99848.25;;;24.03;50.98
82245;BME280;71849;50.096;14.458;2023-08-12T08:14:39;99849.06;;;24.17;50.72
82245;BME280;71849;50.096;14.458;2023-08-12T08:17:05;99852.56;;;24.36;50.10
82245;BME280;71849;50.096;14.458;2023-08-12T08:19:31;99839.81;;;24.58;49.12
82245;BME280;71849;50.096;14.458;2023-08-12T08:22:01;99839.03;;;24.79;48.60
82245;BME280;71849;50.096;14.458;2023-08-12T08:24:27;99839.31;;;24.91;48.62
82245;BME280;71849;50.096;14.458;2023-08-12T08:26:52;99836.59;;;25.00;48.11
82245;BME280;71849;50.096;14.458;2023-08-12T08:29:17;99830.34;;;25.17;47.66
82245;BME280;71849;50.096;14.458;2023-08-12T08:31:45;99829.63;;;25.11;46.84
82245;BME280;71849;50.096;14.458;2023-08-12T08:34:11;99824.63;;;24.99;47.06
82245;BME280;71849;50.096;14.458;2023-08-12T08:36:36;99824.78;;;24.94;47.30
82245;BME280;71849;50.096;14.458;2023-08-12T08:39:02;99828.03;;;25.19;46.60
82245;BME280;71849;50.096;14.458;2023-08-12T08:41:40;99829.63;;;25.11;46.50
82245;BME280;71849;50.096;14.458;2023-08-12T08:44:11;99831.91;;;25.31;47.01
82245;BME280;71849;50.096;14.458;2023-08-12T08:46:37;99829.13;;;25.31;46.55
82245;BME280;71849;50.096;14.458;2023-08-12T08:49:06;99825.81;;;25.29;46.87
82245;BME280;71849;50.096;14.458;2023-08-12T08:51:39;99824.81;;;25.25;46.66
82245;BME280;71849;50.096;14.458;2023-08-12T08:54:05;99816.94;;;25.27;46.36
82245;BME280;71849;50.096;14.458;2023-08-12T08:56:34;99813.34;;;25.49;45.26
82245;BME280;71849;50.096;14.458;2023-08-12T08:58:59;99809.44;;;25.59;45.38
82245;BME280;71849;50.096;14.458;2023-08-12T09:01:26;99809.00;;;25.74;45.14
82245;BME280;71849;50.096;14.458;2023-08-12T09:03:54;99798.94;;;26.03;43.85
82245;BME280;71849;50.096;14.458;2023-08-12T09:06:21;99806.03;;;25.70;44.71
82245;BME280;71849;50.096;14.458;2023-08-12T09:08:49;99799.19;;;25.85;43.95
82245;BME280;71849;50.096;14.458;2023-08-12T09:11:18;99806.94;;;26.44;42.99
82245;BME280;71849;50.096;14.458;2023-08-12T09:13:48;99798.34;;;26.24;43.73
82245;BME280;71849;50.096;14.458;2023-08-12T09:16:15;99802.13;;;26.36;43.45
82245;BME280;71849;50.096;14.458;2023-08-12T09:18:45;99805.63;;;26.59;42.90
82245;BME280;71849;50.096;14.458;2023-08-12T09:21:11;99797.84;;;26.39;42.66
82245;BME280;71849;50.096;14.458;2023-08-12T09:23:38;99795.59;;;26.41;42.97
82245;BME280;71849;50.096;14.458;2023-08-12T09:26:19;99785.06;;;26.46;42.36
82245;BME280;71849;50.096;14.458;2023-08-12T09:28:46;99791.66;;;26.59;42.06
82245;BME280;71849;50.096;14.458;2023-08-12T09:31:28;99781.31;;;26.85;41.54
82245;BME280;71849;50.096;14.458;2023-08-12T09:34:04;99781.25;;;27.02;40.71
82245;BME280;71849;50.096;14.458;2023-08-12T09:36:31;99772.16;;;27.31;39.22
82245;BME280;71849;50.096;14.458;2023-08-12T09:39:06;99771.66;;;27.38;40.23
82245;BME280;71849;50.096;14.458;2023-08-12T09:41:34;99771.28;;;27.56;39.14
82245;BME280;71849;50.096;14.458;2023-08-12T09:44:01;99762.03;;;27.64;37.70
82245;BME280;71849;50.096;14.458;2023-08-12T09:46:35;99770.53;;;27.77;37.05
82245;BME280;71849;50.096;14.458;2023-08-12T09:49:01;99760.97;;;27.78;36.90
82245;BME280;71849;50.096;14.458;2023-08-12T09:51:35;99759.88;;;27.99;36.48
82245;BME280;71849;50.096;14.458;2023-08-12T09:54:00;99753.44;;;27.99;36.10
82245;BME280;71849;50.096;14.458;2023-08-12T09:56:33;99755.53;;;28.10;35.77
82245;BME280;71849;50.096;14.458;2023-08-12T09:59:03;99746.19;;;27.98;35.72
82245;BME280;71849;50.096;14.458;2023-08-12T10:01:30;99739.94;;;28.01;36.09
82245;BME280;71849;50.096;14.458;2023-08-12T10:03:56;99740.09;;;28.04;35.93
82245;BME280;71849;50.096;14.458;2023-08-12T10:06:24;99741.94;;;28.21;35.56
82245;BME280;71849;50.096;14.458;2023-08-12T10:08:50;99739.22;;;28.12;35.40
82245;BME280;71849;50.096;14.458;2023-08-12T10:11:16;99733.69;;;28.25;34.94
82245;BME280;71849;50.096;14.458;2023-08-12T10:13:41;99737.00;;;28.27;35.59
82245;BME280;71849;50.096;14.458;2023-08-12T10:16:08;99732.06;;;28.24;35.38
82245;BME280;71849;50.096;14.458;2023-08-12T10:18:36;99735.06;;;28.18;34.60
82245;BME280;71849;50.096;14.458;2023-08-12T10:21:01;99724.41;;;28.12;34.64
82245;BME280;71849;50.096;14.458;2023-08-12T10:23:27;99721.66;;;28.24;34.75
82245;BME280;71849;50.096;14.458;2023-08-12T10:25:54;99725.13;;;28.30;35.07
82245;BME280;71849;50.096;14.458;2023-08-12T10:28:20;99717.50;;;28.30;34.66
82245;BME280;71849;50.096;14.458;2023-08-12T10:30:46;99717.94;;;28.20;35.40
82245;BME280;71849;50.096;14.458;2023-08-12T10:33:14;99720.94;;;28.36;35.45
82245;BME280;71849;50.096;14.458;2023-08-12T10:35:48;99715.88;;;28.50;35.22
82245;BME280;71849;50.096;14.458;2023-08-12T10:38:17;99705.41;;;28.59;33.81
82245;BME280;71849;50.096;14.458;2023-08-12T10:40:43;99706.91;;;28.77;33.44
82245;BME280;71849;50.096;14.458;2023-08-12T10:43:09;99704.09;;;28.77;33.59
82245;BME280;71849;50.096;14.458;2023-08-12T10:45:47;99698.25;;;28.82;32.68
82245;BME280;71849;50.096;14.458;2023-08-12T10:48:17;99704.38;;;28.84;32.72
82245;BME280;71849;50.096;14.458;2023-08-12T10:50:46;99702.84;;;28.87;32.54
82245;BME280;71849;50.096;14.458;2023-08-12T10:55:50;99695.63;;;28.98;32.44
82245;BME280;71849;50.096;14.458;2023-08-12T10:58:37;99679.66;;;29.22;32.55
82245;BME280;71849;50.096;14.458;2023-08-12T11:01:11;99691.50;;;29.28;31.60
82245;BME280;71849;50.096;14.458;2023-08-12T11:03:42;99677.03;;;29.50;30.83
82245;BME280;71849;50.096;14.458;2023-08-12T11:06:10;99682.06;;;29.45;29.39
82245;BME280;71849;50.096;14.458;2023-08-12T11:08:36;99675.97;;;29.43;29.41
82245;BME280;71849;50.096;14.458;2023-08-12T11:11:19;99667.22;;;29.32;29.84
82245;BME280;71849;50.096;14.458;2023-08-12T11:14:00;99666.97;;;29.61;29.74
82245;BME280;71849;50.096;14.458;2023-08-12T11:16:37;99665.56;;;29.55;29.35
82245;BME280;71849;50.096;14.458;2023-08-12T11:19:05;99672.81;;;29.68;29.08
82245;BME280;71849;50.096;14.458;2023-08-12T11:21:31;99666.84;;;29.94;28.28
82245;BME280;71849;50.096;14.458;2023-08-12T11:23:57;99668.72;;;29.78;28.30
82245;BME280;71849;50.096;14.458;2023-08-12T11:26:26;99658.19;;;29.87;28.02
82245;BME280;71849;50.096;14.458;2023-08-12T11:28:54;99657.75;;;29.85;27.57
82245;BME280;71849;50.096;14.458;2023-08-12T11:31:21;99652.47;;;29.71;27.52
82245;BME280;71849;50.096;14.458;2023-08-12T11:33:48;99646.59;;;29.76;27.10
82245;BME280;71849;50.096;14.458;2023-08-12T11:36:13;99648.94;;;29.87;27.51
82245;BME280;71849;50.096;14.458;2023-08-12T11:38:40;99638.97;;;30.01;27.09
82245;BME280;71849;50.096;14.458;2023-08-12T11:41:07;99636.84;;;30.10;26.82
82245;BME280;71849;50.096;14.458;2023-08-12T11:43:32;99638.47;;;30.11;27.05
82245;BME280;71849;50.096;14.458;2023-08-12T11:45:59;99635.63;;;30.23;27.96
82245;BME280;71849;50.096;14.458;2023-08-12T11:48:25;99622.41;;;30.24;27.04
82245;BME280;71849;50.096;14.458;2023-08-12T11:50:51;99625.81;;;30.17;27.43
82245;BME280;71849;50.096;14.458;2023-08-12T11:53:16;99625.38;;;30.15;27.05
82245;BME280;71849;50.096;14.458;2023-08-12T11:55:42;99610.47;;;30.27;26.01
82245;BME280;71849;50.096;14.458;2023-08-12T11:58:08;99611.81;;;30.45;26.68
82245;BME280;71849;50.096;14.458;2023-08-12T12:00:33;99609.16;;;30.52;26.09
82245;BME280;71849;50.096;14.458;2023-08-12T12:02:59;99608.38;;;30.52;27.41
82245;BME280;71849;50.096;14.458;2023-08-12T12:05:28;99603.47;;;30.49;27.59
82245;BME280;71849;50.096;14.458;2023-08-12T12:07:58;99596.59;;;30.34;27.58
82245;BME280;71849;50.096;14.458;2023-08-12T12:10:28;99599.88;;;30.36;27.06
82245;BME280;71849;50.096;14.458;2023-08-12T12:12:55;99598.06;;;30.71;26.90
82245;BME280;71849;50.096;14.458;2023-08-12T12:15:20;99597.63;;;30.69;26.94
82245;BME280;71849;50.096;14.458;2023-08-12T12:17:47;99582.03;;;30.72;26.19
82245;BME280;71849;50.096;14.458;2023-08-12T12:20:12;99589.28;;;30.73;26.32
82245;BME280;71849;50.096;14.458;2023-08-12T12:22:41;99590.00;;;30.70;26.30
82245;BME280;71849;50.096;14.458;2023-08-12T12:25:10;99592.69;;;30.94;26.08
82245;BME280;71849;50.096;14.458;2023-08-12T12:27:38;99586.19;;;30.94;25.81
82245;BME280;71849;50.096;14.458;2023-08-12T12:30:12;99577.25;;;31.04;25.75
82245;BME280;71849;50.096;14.458;2023-08-12T12:32:38;99581.56;;;31.17;26.19
82245;BME280;71849;50.096;14.458;2023-08-12T12:35:04;99577.88;;;31.13;25.24
82245;BME280;71849;50.096;14.458;2023-08-12T12:37:30;99566.25;;;31.14;24.34
82245;BME280;71849;50.096;14.458;2023-08-12T12:40:03;99577.41;;;31.11;24.78
82245;BME280;71849;50.096;14.458;2023-08-12T12:42:29;99572.50;;;31.08;24.61
82245;BME280;71849;50.096;14.458;2023-08-12T12:44:55;99563.81;;;31.13;24.79
82245;BME280;71849;50.096;14.458;2023-08-12T12:47:20;99567.88;;;31.31;24.54
82245;BME280;71849;50.096;14.458;2023-08-12T12:49:46;99571.47;;;31.31;24.46
82245;BME280;71849;50.096;14.458;2023-08-12T12:52:11;99560.84;;;31.40;24.13
82245;BME280;71849;50.096;14.458;2023-08-12T12:54:37;99562.19;;;31.47;24.28
82245;BME280;71849;50.096;14.458;2023-08-12T12:57:02;99569.56;;;31.51;23.75